sensor_id;sensor_type;location;lat;lon;timestamp;P1;durP1;ratioP1;P2;durP2;ratioP2
75316;SDS011;63913;51.492;10.368;2023-03-26T00:01:05;1.45;;;0.50;;
75316;SDS011;63913;51.492;10.368;2023-03-26T00:03:32;1.75;;;0.60;;
75316;SDS011;63913;51.492;10.368;2023-03-26T00:06:06;3.03;;;0.70;;
75316;SDS011;63913;51.492;10.368;2023-03-26T00:08:37;0.60;;;0.47;;
75316;SDS011;63913;51.492;10.368;2023-03-26T00:11:04;0.95;;;0.50;;
75316;SDS011;63913;51.492;10.368;2023-03-26T00:13:31;0.47;;;0.45;;
75316;SDS011;63913;51.492;10.368;2023-03-26T00:15:57;0.85;;;0.40;;
75316;SDS011;63913;51.492;10.368;2023-03-26T00:18:22;0.63;;;0.60;;
75316;SDS011;63913;51.492;10.368;2023-03-26T00:20:58;1.25;;;0.80;;
75316;SDS011;63913;51.492;10.368;2023-03-26T00:23:24;1.75;;;0.65;;
75316;SDS011;63913;51.492;10.368;2023-03-26T00:25:51;1.42;;;0.90;;
75316;SDS011;63913;51.492;10.368;2023-03-26T00:28:17;1.50;;;0.77;;
75316;SDS011;63913;51.492;10.368;2023-03-26T00:30:46;1.73;;;1.25;;
75316;SDS011;63913;51.492;10.368;2023-03-26T00:33:16;0.75;;;0.70;;
75316;SDS011;63913;51.492;10.368;2023-03-26T00:35:42;0.77;;;0.70;;
75316;SDS011;63913;51.492;10.368;2023-03-26T00:38:11;0.95;;;0.70;;
75316;SDS011;63913;51.492;10.368;2023-03-26T00:40:38;2.15;;;1.00;;
75316;SDS011;63913;51.492;10.368;2023-03-26T00:43:09;1.05;;;0.70;;
75316;SDS011;63913;51.492;10.368;2023-03-26T00:45:43;0.90;;;0.80;;
75316;SDS011;63913;51.492;10.368;2023-03-26T00:48:13;0.63;;;0.60;;
75316;SDS011;63913;51.492;10.368;2023-03-26T00:50:39;1.77;;;0.80;;
75316;SDS011;63913;51.492;10.368;2023-03-26T00:53:05;1.23;;;0.70;;
75316;SDS011;63913;51.492;10.368;2023-03-26T00:55:33;2.17;;;0.70;;
75316;SDS011;63913;51.492;10.368;2023-03-26T00:57:59;1.70;;;0.70;;
75316;SDS011;63913;51.492;10.368;2023-03-26T01:00:29;2.22;;;0.80;;
75316;SDS011;63913;51.492;10.368;2023-03-26T01:02:59;1.90;;;1.00;;
75316;SDS011;63913;51.492;10.368;2023-03-26T01:08:42;0.90;;;0.80;;
75316;SDS011;63913;51.492;10.368;2023-03-26T01:10:55;2.60;;;0.90;;
75316;SDS011;63913;51.492;10.368;2023-03-26T01:13:31;1.17;;;0.88;;
75316;SDS011;63913;51.492;10.368;2023-03-26T01:16:00;2.40;;;1.15;;
75316;SDS011;63913;51.492;10.368;2023-03-26T01:18:27;2.25;;;1.10;;
75316;SDS011;63913;51.492;10.368;2023-03-26T01:20:58;2.30;;;1.35;;
75316;SDS011;63913;51.492;10.368;2023-03-26T01:23:37;1.05;;;0.95;;
75316;SDS011;63913;51.492;10.368;2023-03-26T01:26:20;2.75;;;0.93;;
75316;SDS011;63913;51.492;10.368;2023-03-26T01:28:54;3.28;;;1.25;;
75316;SDS011;63913;51.492;10.368;2023-03-26T01:31:42;6.70;;;1.55;;
75316;SDS011;63913;51.492;10.368;2023-03-26T01:34:20;2.00;;;1.20;;
75316;SDS011;63913;51.492;10.368;2023-03-26T01:36:55;1.42;;;0.88;;
75316;SDS011;63913;51.492;10.368;2023-03-26T01:39:30;1.88;;;1.00;;
75316;SDS011;63913;51.492;10.368;2023-03-26T01:42:07;2.58;;;1.10;;
75316;SDS011;63913;51.492;10.368;2023-03-26T01:47:10;1.85;;;1.05;;
75316;SDS011;63913;51.492;10.368;2023-03-26T01:49:37;3.38;;;1.20;;
75316;SDS011;63913;51.492;10.368;2023-03-26T01:52:05;1.17;;;0.90;;
75316;SDS011;63913;51.492;10.368;2023-03-26T01:54:36;1.95;;;1.00;;
75316;SDS011;63913;51.492;10.368;2023-03-26T02:02:16;2.50;;;1.10;;
75316;SDS011;63913;51.492;10.368;2023-03-26T02:05:35;1.33;;;1.17;;
75316;SDS011;63913;51.492;10.368;2023-03-26T02:12:41;1.83;;;0.85;;
75316;SDS011;63913;51.492;10.368;2023-03-26T02:15:08;2.83;;;1.15;;
75316;SDS011;63913;51.492;10.368;2023-03-26T02:17:35;1.17;;;0.88;;
75316;SDS011;63913;51.492;10.368;2023-03-26T02:20:04;1.20;;;0.85;;
75316;SDS011;63913;51.492;10.368;2023-03-26T02:22:33;1.85;;;1.05;;
75316;SDS011;63913;51.492;10.368;2023-03-26T02:25:06;1.70;;;0.77;;
75316;SDS011;63913;51.492;10.368;2023-03-26T02:27:34;2.25;;;0.60;;
75316;SDS011;63913;51.492;10.368;2023-03-26T02:30:00;0.95;;;0.80;;
75316;SDS011;63913;51.492;10.368;2023-03-26T02:32:26;1.30;;;0.68;;
75316;SDS011;63913;51.492;10.368;2023-03-26T02:34:51;3.33;;;0.90;;
75316;SDS011;63913;51.492;10.368;2023-03-26T02:37:17;1.30;;;0.80;;
75316;SDS011;63913;51.492;10.368;2023-03-26T02:39:44;0.60;;;0.60;;
75316;SDS011;63913;51.492;10.368;2023-03-26T02:42:19;1.95;;;0.85;;
75316;SDS011;63913;51.492;10.368;2023-03-26T02:44:46;1.08;;;0.88;;
75316;SDS011;63913;51.492;10.368;2023-03-26T02:47:18;0.63;;;0.63;;
75316;SDS011;63913;51.492;10.368;2023-03-26T02:50:02;1.05;;;0.90;;
75316;SDS011;63913;51.492;10.368;2023-03-26T02:52:48;3.13;;;0.77;;
75316;SDS011;63913;51.492;10.368;2023-03-26T02:55:14;2.08;;;1.02;;
75316;SDS011;63913;51.492;10.368;2023-03-26T02:57:41;0.80;;;0.70;;
75316;SDS011;63913;51.492;10.368;2023-03-26T03:00:13;1.85;;;1.00;;
75316;SDS011;63913;51.492;10.368;2023-03-26T03:02:43;2.08;;;1.17;;
75316;SDS011;63913;51.492;10.368;2023-03-26T03:05:50;5.13;;;1.55;;
75316;SDS011;63913;51.492;10.368;2023-03-26T03:08:45;2.58;;;1.40;;
75316;SDS011;63913;51.492;10.368;2023-03-26T03:11:31;3.65;;;1.67;;
75316;SDS011;63913;51.492;10.368;2023-03-26T03:13:56;2.33;;;0.90;;
75316;SDS011;63913;51.492;10.368;2023-03-26T03:16:24;2.67;;;1.00;;
75316;SDS011;63913;51.492;10.368;2023-03-26T03:18:50;2.88;;;1.08;;
75316;SDS011;63913;51.492;10.368;2023-03-26T03:23:47;2.47;;;1.15;;
75316;SDS011;63913;51.492;10.368;2023-03-26T03:26:17;1.50;;;1.10;;
75316;SDS011;63913;51.492;10.368;2023-03-26T03:28:49;4.60;;;1.50;;
75316;SDS011;63913;51.492;10.368;2023-03-26T03:31:16;1.70;;;0.98;;
75316;SDS011;63913;51.492;10.368;2023-03-26T03:33:41;2.65;;;1.10;;
75316;SDS011;63913;51.492;10.368;2023-03-26T03:36:09;2.78;;;1.15;;
75316;SDS011;63913;51.492;10.368;2023-03-26T03:38:37;1.83;;;1.10;;
75316;SDS011;63913;51.492;10.368;2023-03-26T03:41:03;2.13;;;1.38;;
75316;SDS011;63913;51.492;10.368;2023-03-26T03:43:31;2.65;;;1.27;;
75316;SDS011;63913;51.492;10.368;2023-03-26T03:46:05;1.90;;;1.10;;
75316;SDS011;63913;51.492;10.368;2023-03-26T03:48:47;2.58;;;1.35;;
75316;SDS011;63913;51.492;10.368;2023-03-26T03:51:16;3.28;;;1.38;;
75316;SDS011;63913;51.492;10.368;2023-03-26T03:53:51;4.03;;;1.50;;
75316;SDS011;63913;51.492;10.368;2023-03-26T03:56:30;3.47;;;1.55;;
75316;SDS011;63913;51.492;10.368;2023-03-26T03:59:15;0.95;;;0.90;;
75316;SDS011;63913;51.492;10.368;2023-03-26T04:01:41;2.50;;;1.30;;
75316;SDS011;63913;51.492;10.368;2023-03-26T04:04:12;1.00;;;0.75;;
75316;SDS011;63913;51.492;10.368;2023-03-26T04:06:57;3.08;;;1.48;;
75316;SDS011;63913;51.492;10.368;2023-03-26T04:09:27;2.33;;;1.27;;
75316;SDS011;63913;51.492;10.368;2023-03-26T04:11:56;2.10;;;1.10;;
75316;SDS011;63913;51.492;10.368;2023-03-26T04:14:34;6.10;;;1.30;;
75316;SDS011;63913;51.492;10.368;2023-03-26T04:17:03;1.88;;;1.48;;
75316;SDS011;63913;51.492;10.368;2023-03-26T04:19:34;3.38;;;1.02;;
75316;SDS011;63913;51.492;10.368;2023-03-26T04:22:01;2.08;;;1.23;;
75316;SDS011;63913;51.492;10.368;2023-03-26T04:24:30;2.45;;;1.10;;
75316;SDS011;63913;51.492;10.368;2023-03-26T04:27:08;3.17;;;1.20;;
75316;SDS011;63913;51.492;10.368;2023-03-26T04:29:44;2.83;;;1.10;;
75316;SDS011;63913;51.492;10.368;2023-03-26T04:32:25;1.45;;;1.00;;
75316;SDS011;63913;51.492;10.368;2023-03-26T04:34:59;2.83;;;1.20;;
75316;SDS011;63913;51.492;10.368;2023-03-26T04:37:34;0.90;;;0.77;;
75316;SDS011;63913;51.492;10.368;2023-03-26T04:40:14;2.38;;;1.10;;
75316;SDS011;63913;51.492;10.368;2023-03-26T04:42:50;1.05;;;0.95;;
75316;SDS011;63913;51.492;10.368;2023-03-26T04:45:36;2.75;;;1.20;;
75316;SDS011;63913;51.492;10.368;2023-03-26T04:48:01;2.13;;;1.00;;
75316;SDS011;63913;51.492;10.368;2023-03-26T04:50:27;2.70;;;1.10;;
75316;SDS011;63913;51.492;10.368;2023-03-26T04:52:52;3.95;;;1.30;;
75316;SDS011;63913;51.492;10.368;2023-03-26T04:55:24;2.78;;;1.00;;
75316;SDS011;63913;51.492;10.368;2023-03-26T04:58:03;4.65;;;1.42;;
75316;SDS011;63913;51.492;10.368;2023-03-26T05:00:47;2.40;;;1.15;;
75316;SDS011;63913;51.492;10.368;2023-03-26T05:03:13;1.60;;;1.15;;
75316;SDS011;63913;51.492;10.368;2023-03-26T05:05:39;3.80;;;1.40;;
75316;SDS011;63913;51.492;10.368;2023-03-26T05:08:06;3.95;;;1.25;;
75316;SDS011;63913;51.492;10.368;2023-03-26T05:10:31;3.15;;;1.20;;
75316;SDS011;63913;51.492;10.368;2023-03-26T05:13:08;3.95;;;1.42;;
75316;SDS011;63913;51.492;10.368;2023-03-26T05:15:37;4.13;;;1.23;;
75316;SDS011;63913;51.492;10.368;2023-03-26T05:18:13;5.10;;;1.33;;
75316;SDS011;63913;51.492;10.368;2023-03-26T05:20:42;3.63;;;1.27;;
75316;SDS011;63913;51.492;10.368;2023-03-26T05:23:08;3.75;;;1.80;;
75316;SDS011;63913;51.492;10.368;2023-03-26T05:25:36;3.22;;;1.50;;
75316;SDS011;63913;51.492;10.368;2023-03-26T05:28:09;5.72;;;1.40;;
75316;SDS011;63913;51.492;10.368;2023-03-26T05:30:46;4.00;;;1.40;;
75316;SDS011;63913;51.492;10.368;2023-03-26T05:33:12;6.45;;;1.50;;
75316;SDS011;63913;51.492;10.368;2023-03-26T05:35:44;5.18;;;1.63;;
75316;SDS011;63913;51.492;10.368;2023-03-26T05:38:10;2.17;;;1.52;;
75316;SDS011;63913;51.492;10.368;2023-03-26T05:40:35;2.53;;;1.50;;
75316;SDS011;63913;51.492;10.368;2023-03-26T05:43:04;6.57;;;1.83;;
75316;SDS011;63913;51.492;10.368;2023-03-26T05:45:54;5.30;;;1.90;;
75316;SDS011;63913;51.492;10.368;2023-03-26T05:48:26;7.60;;;1.88;;
75316;SDS011;63913;51.492;10.368;2023-03-26T05:50:52;7.25;;;1.63;;
75316;SDS011;63913;51.492;10.368;2023-03-26T05:53:20;4.10;;;1.60;;
75316;SDS011;63913;51.492;10.368;2023-03-26T05:56:05;6.03;;;1.70;;
75316;SDS011;63913;51.492;10.368;2023-03-26T05:58:59;6.22;;;1.77;;
75316;SDS011;63913;51.492;10.368;2023-03-26T06:01:48;3.42;;;1.50;;
75316;SDS011;63913;51.492;10.368;2023-03-26T06:04:33;2.60;;;1.42;;
75316;SDS011;63913;51.492;10.368;2023-03-26T06:07:17;3.75;;;1.60;;
75316;SDS011;63913;51.492;10.368;2023-03-26T06:09:51;7.22;;;2.08;;
75316;SDS011;63913;51.492;10.368;2023-03-26T06:12:18;3.92;;;1.48;;
75316;SDS011;63913;51.492;10.368;2023-03-26T06:14:43;4.47;;;1.40;;
75316;SDS011;63913;51.492;10.368;2023-03-26T06:17:30;6.47;;;1.75;;
75316;SDS011;63913;51.492;10.368;2023-03-26T06:20:09;3.60;;;1.50;;
75316;SDS011;63913;51.492;10.368;2023-03-26T06:22:38;3.72;;;1.40;;
75316;SDS011;63913;51.492;10.368;2023-03-26T06:25:16;9.00;;;1.63;;
75316;SDS011;63913;51.492;10.368;2023-03-26T06:27:57;4.57;;;1.70;;
75316;SDS011;63913;51.492;10.368;2023-03-26T06:30:38;7.45;;;2.63;;
75316;SDS011;63913;51.492;10.368;2023-03-26T06:33:11;7.30;;;2.63;;
75316;SDS011;63913;51.492;10.368;2023-03-26T06:35:43;5.03;;;1.80;;
75316;SDS011;63913;51.492;10.368;2023-03-26T06:38:11;7.97;;;1.98;;
75316;SDS011;63913;51.492;10.368;2023-03-26T06:40:37;7.88;;;2.00;;
75316;SDS011;63913;51.492;10.368;2023-03-26T06:43:25;8.70;;;2.40;;
75316;SDS011;63913;51.492;10.368;2023-03-26T06:45:51;7.07;;;1.60;;
75316;SDS011;63913;51.492;10.368;2023-03-26T06:48:42;7.88;;;1.77;;
75316;SDS011;63913;51.492;10.368;2023-03-26T06:51:16;7.85;;;2.20;;
75316;SDS011;63913;51.492;10.368;2023-03-26T06:54:05;5.43;;;1.92;;
75316;SDS011;63913;51.492;10.368;2023-03-26T06:56:43;7.35;;;1.98;;
75316;SDS011;63913;51.492;10.368;2023-03-26T06:59:20;6.30;;;1.70;;
75316;SDS011;63913;51.492;10.368;2023-03-26T07:02:04;8.75;;;1.60;;
75316;SDS011;63913;51.492;10.368;2023-03-26T07:04:48;7.80;;;1.67;;
75316;SDS011;63913;51.492;10.368;2023-03-26T07:07:32;7.43;;;2.78;;
75316;SDS011;63913;51.492;10.368;2023-03-26T07:10:16;4.30;;;1.40;;
75316;SDS011;63913;51.492;10.368;2023-03-26T07:12:49;10.77;;;2.67;;
75316;SDS011;63913;51.492;10.368;2023-03-26T07:15:50;4.07;;;1.52;;
75316;SDS011;63913;51.492;10.368;2023-03-26T07:18:27;3.60;;;1.58;;
75316;SDS011;63913;51.492;10.368;2023-03-26T07:20:53;7.70;;;1.45;;
75316;SDS011;63913;51.492;10.368;2023-03-26T07:23:20;7.82;;;1.45;;
75316;SDS011;63913;51.492;10.368;2023-03-26T07:25:54;7.30;;;1.50;;
75316;SDS011;63913;51.492;10.368;2023-03-26T07:28:55;4.45;;;1.50;;
75316;SDS011;63913;51.492;10.368;2023-03-26T07:31:48;3.38;;;1.13;;
75316;SDS011;63913;51.492;10.368;2023-03-26T07:34:31;4.45;;;1.45;;
75316;SDS011;63913;51.492;10.368;2023-03-26T07:43:47;12.73;;;1.77;;
75316;SDS011;63913;51.492;10.368;2023-03-26T07:46:36;4.40;;;1.58;;
75316;SDS011;63913;51.492;10.368;2023-03-26T07:49:21;6.18;;;1.92;;
75316;SDS011;63913;51.492;10.368;2023-03-26T07:52:07;2.78;;;1.50;;
75316;SDS011;63913;51.492;10.368;2023-03-26T07:54:46;6.10;;;1.80;;
75316;SDS011;63913;51.492;10.368;2023-03-26T07:57:52;10.75;;;2.30;;
75316;SDS011;63913;51.492;10.368;2023-03-26T08:01:02;6.65;;;2.13;;
75316;SDS011;63913;51.492;10.368;2023-03-26T08:04:18;8.88;;;1.42;;
75316;SDS011;63913;51.492;10.368;2023-03-26T08:07:14;3.33;;;1.40;;
75316;SDS011;63913;51.492;10.368;2023-03-26T08:10:41;6.18;;;1.33;;
75316;SDS011;63913;51.492;10.368;2023-03-26T08:13:33;4.90;;;1.95;;
75316;SDS011;63913;51.492;10.368;2023-03-26T08:16:11;5.75;;;1.67;;
75316;SDS011;63913;51.492;10.368;2023-03-26T08:21:32;8.13;;;1.50;;
75316;SDS011;63913;51.492;10.368;2023-03-26T08:26:58;7.15;;;1.73;;
75316;SDS011;63913;51.492;10.368;2023-03-26T08:31:52;5.73;;;1.40;;
75316;SDS011;63913;51.492;10.368;2023-03-26T08:34:19;9.75;;;2.33;;
75316;SDS011;63913;51.492;10.368;2023-03-26T08:36:44;4.72;;;1.50;;
75316;SDS011;63913;51.492;10.368;2023-03-26T08:39:10;7.57;;;1.83;;
75316;SDS011;63913;51.492;10.368;2023-03-26T08:41:51;12.18;;;1.80;;
75316;SDS011;63913;51.492;10.368;2023-03-26T08:44:33;6.28;;;1.52;;
75316;SDS011;63913;51.492;10.368;2023-03-26T08:47:29;3.95;;;1.50;;
75316;SDS011;63913;51.492;10.368;2023-03-26T08:50:30;5.80;;;1.75;;
75316;SDS011;63913;51.492;10.368;2023-03-26T08:53:19;6.28;;;1.55;;
75316;SDS011;63913;51.492;10.368;2023-03-26T08:56:14;9.50;;;2.00;;
75316;SDS011;63913;51.492;10.368;2023-03-26T09:12:25;10.60;;;2.20;;
75316;SDS011;63913;51.492;10.368;2023-03-26T09:37:01;3.50;;;1.33;;
75316;SDS011;63913;51.492;10.368;2023-03-26T09:45:18;8.80;;;2.47;;
75316;SDS011;63913;51.492;10.368;2023-03-26T09:50:17;6.93;;;2.07;;
75316;SDS011;63913;51.492;10.368;2023-03-26T09:53:03;5.50;;;1.67;;
75316;SDS011;63913;51.492;10.368;2023-03-26T10:03:52;5.00;;;1.65;;
75316;SDS011;63913;51.492;10.368;2023-03-26T10:14:33;4.05;;;2.00;;
75316;SDS011;63913;51.492;10.368;2023-03-26T10:17:16;9.00;;;1.90;;
75316;SDS011;63913;51.492;10.368;2023-03-26T10:25:57;8.23;;;1.80;;
75316;SDS011;63913;51.492;10.368;2023-03-26T10:34:28;5.50;;;1.45;;
75316;SDS011;63913;51.492;10.368;2023-03-26T10:45:52;6.13;;;2.05;;
75316;SDS011;63913;51.492;10.368;2023-03-26T10:48:35;4.60;;;1.38;;
75316;SDS011;63913;51.492;10.368;2023-03-26T10:51:25;7.25;;;2.10;;
75316;SDS011;63913;51.492;10.368;2023-03-26T10:56:42;6.90;;;1.45;;
75316;SDS011;63913;51.492;10.368;2023-03-26T10:59:10;5.28;;;1.55;;
75316;SDS011;63913;51.492;10.368;2023-03-26T11:01:42;6.45;;;2.38;;
75316;SDS011;63913;51.492;10.368;2023-03-26T11:04:27;6.95;;;1.60;;
75316;SDS011;63913;51.492;10.368;2023-03-26T11:07:31;5.75;;;1.02;;
75316;SDS011;63913;51.492;10.368;2023-03-26T11:10:07;6.10;;;1.50;;
75316;SDS011;63913;51.492;10.368;2023-03-26T11:12:52;7.13;;;1.52;;
75316;SDS011;63913;51.492;10.368;2023-03-26T11:18:38;5.78;;;1.33;;
75316;SDS011;63913;51.492;10.368;2023-03-26T11:26:53;5.38;;;1.20;;
75316;SDS011;63913;51.492;10.368;2023-03-26T11:32:00;3.22;;;1.60;;
75316;SDS011;63913;51.492;10.368;2023-03-26T11:34:32;4.38;;;1.13;;
75316;SDS011;63913;51.492;10.368;2023-03-26T11:37:03;5.28;;;1.23;;
75316;SDS011;63913;51.492;10.368;2023-03-26T11:39:38;7.40;;;1.25;;
75316;SDS011;63913;51.492;10.368;2023-03-26T11:42:10;5.38;;;1.65;;
75316;SDS011;63913;51.492;10.368;2023-03-26T11:47:45;4.30;;;1.33;;
75316;SDS011;63913;51.492;10.368;2023-03-26T11:50:20;3.13;;;1.17;;
75316;SDS011;63913;51.492;10.368;2023-03-26T11:52:52;3.60;;;1.40;;
75316;SDS011;63913;51.492;10.368;2023-03-26T11:55:23;3.20;;;1.10;;
75316;SDS011;63913;51.492;10.368;2023-03-26T11:57:52;4.97;;;2.22;;
75316;SDS011;63913;51.492;10.368;2023-03-26T12:00:20;3.15;;;1.00;;
75316;SDS011;63913;51.492;10.368;2023-03-26T12:02:53;1.77;;;1.20;;
75316;SDS011;63913;51.492;10.368;2023-03-26T12:05:21;5.35;;;0.90;;
75316;SDS011;63913;51.492;10.368;2023-03-26T12:07:56;7.65;;;1.27;;
75316;SDS011;63913;51.492;10.368;2023-03-26T12:12:59;2.92;;;1.20;;
75316;SDS011;63913;51.492;10.368;2023-03-26T12:15:27;3.80;;;1.40;;
75316;SDS011;63913;51.492;10.368;2023-03-26T12:17:55;3.08;;;1.58;;
75316;SDS011;63913;51.492;10.368;2023-03-26T12:22:54;4.13;;;1.40;;
75316;SDS011;63913;51.492;10.368;2023-03-26T12:25:31;2.25;;;0.85;;
75316;SDS011;63913;51.492;10.368;2023-03-26T12:27:59;1.35;;;0.38;;
75316;SDS011;63913;51.492;10.368;2023-03-26T12:30:56;0.75;;;0.60;;
75316;SDS011;63913;51.492;10.368;2023-03-26T12:33:28;0.63;;;0.35;;
75316;SDS011;63913;51.492;10.368;2023-03-26T12:35:58;3.20;;;1.17;;
75316;SDS011;63913;51.492;10.368;2023-03-26T12:38:40;2.03;;;1.25;;
75316;SDS011;63913;51.492;10.368;2023-03-26T12:46:19;3.28;;;1.58;;
75316;SDS011;63913;51.492;10.368;2023-03-26T12:48:44;2.47;;;1.17;;
75316;SDS011;63913;51.492;10.368;2023-03-26T12:53:45;1.67;;;0.90;;
75316;SDS011;63913;51.492;10.368;2023-03-26T12:56:18;1.95;;;0.50;;
75316;SDS011;63913;51.492;10.368;2023-03-26T12:59:06;1.42;;;0.40;;
75316;SDS011;63913;51.492;10.368;2023-03-26T13:04:32;0.30;;;0.22;;
75316;SDS011;63913;51.492;10.368;2023-03-26T13:07:22;0.80;;;0.20;;
75316;SDS011;63913;51.492;10.368;2023-03-26T13:10:05;0.43;;;0.43;;
75316;SDS011;63913;51.492;10.368;2023-03-26T13:13:01;1.15;;;0.52;;
75316;SDS011;63913;51.492;10.368;2023-03-26T13:15:55;2.72;;;0.68;;
75316;SDS011;63913;51.492;10.368;2023-03-26T13:18:49;0.57;;;0.57;;
75316;SDS011;63913;51.492;10.368;2023-03-26T13:21:44;10.27;;;3.80;;
75316;SDS011;63913;51.492;10.368;2023-03-26T13:24:23;8.48;;;6.88;;
75316;SDS011;63913;51.492;10.368;2023-03-26T13:27:58;4.20;;;2.90;;
75316;SDS011;63913;51.492;10.368;2023-03-26T13:30:23;2.42;;;2.05;;
75316;SDS011;63913;51.492;10.368;2023-03-26T13:39:04;0.85;;;0.60;;
75316;SDS011;63913;51.492;10.368;2023-03-26T13:47:06;2.05;;;1.02;;
75316;SDS011;63913;51.492;10.368;2023-03-26T13:49:45;2.20;;;1.13;;
75316;SDS011;63913;51.492;10.368;2023-03-26T13:55:22;1.83;;;1.05;;
75316;SDS011;63913;51.492;10.368;2023-03-26T14:00:44;2.13;;;1.08;;
75316;SDS011;63913;51.492;10.368;2023-03-26T14:03:17;0.80;;;0.60;;
75316;SDS011;63913;51.492;10.368;2023-03-26T14:06:07;2.50;;;1.42;;
75316;SDS011;63913;51.492;10.368;2023-03-26T14:08:43;1.65;;;1.15;;
75316;SDS011;63913;51.492;10.368;2023-03-26T14:11:12;0.50;;;0.50;;
75316;SDS011;63913;51.492;10.368;2023-03-26T14:13:48;1.45;;;0.70;;
75316;SDS011;63913;51.492;10.368;2023-03-26T14:16:22;0.38;;;0.35;;
75316;SDS011;63913;51.492;10.368;2023-03-26T14:24:27;1.38;;;0.40;;
75316;SDS011;63913;51.492;10.368;2023-03-26T14:32:56;1.52;;;1.40;;
75316;SDS011;63913;51.492;10.368;2023-03-26T14:35:35;0.95;;;0.60;;
75316;SDS011;63913;51.492;10.368;2023-03-26T14:49:50;0.65;;;0.52;;
75316;SDS011;63913;51.492;10.368;2023-03-26T15:01:13;2.60;;;0.60;;
75316;SDS011;63913;51.492;10.368;2023-03-26T15:26:24;1.38;;;1.08;;
75316;SDS011;63913;51.492;10.368;2023-03-26T15:31:26;2.13;;;0.30;;
75316;SDS011;63913;51.492;10.368;2023-03-26T15:37:28;10.63;;;4.90;;
75316;SDS011;63913;51.492;10.368;2023-03-26T15:45:56;1.80;;;0.52;;
75316;SDS011;63913;51.492;10.368;2023-03-26T15:54:31;0.82;;;0.60;;
75316;SDS011;63913;51.492;10.368;2023-03-26T16:08:52;0.93;;;0.80;;
75316;SDS011;63913;51.492;10.368;2023-03-26T16:11:41;0.70;;;0.60;;
75316;SDS011;63913;51.492;10.368;2023-03-26T16:17:05;0.43;;;0.40;;
75316;SDS011;63913;51.492;10.368;2023-03-26T16:19:58;0.45;;;0.30;;
75316;SDS011;63913;51.492;10.368;2023-03-26T16:22:54;1.45;;;0.90;;
75316;SDS011;63913;51.492;10.368;2023-03-26T16:25:33;3.85;;;2.17;;
75316;SDS011;63913;51.492;10.368;2023-03-26T16:28:26;1.70;;;1.10;;
75316;SDS011;63913;51.492;10.368;2023-03-26T16:33:38;1.38;;;0.77;;
75316;SDS011;63913;51.492;10.368;2023-03-26T16:41:30;1.63;;;0.38;;
75316;SDS011;63913;51.492;10.368;2023-03-26T16:47:01;0.40;;;0.40;;
75316;SDS011;63913;51.492;10.368;2023-03-26T17:04:14;1.00;;;0.95;;
75316;SDS011;63913;51.492;10.368;2023-03-26T17:12:34;4.05;;;1.77;;
75316;SDS011;63913;51.492;10.368;2023-03-26T17:17:51;3.50;;;1.70;;
75316;SDS011;63913;51.492;10.368;2023-03-26T17:20:52;4.45;;;2.88;;
75316;SDS011;63913;51.492;10.368;2023-03-26T17:26:13;2.40;;;1.80;;
75316;SDS011;63913;51.492;10.368;2023-03-26T17:44:41;1.00;;;0.93;;
75316;SDS011;63913;51.492;10.368;2023-03-26T17:49:52;1.77;;;1.02;;
75316;SDS011;63913;51.492;10.368;2023-03-26T17:52:24;7.38;;;2.97;;
75316;SDS011;63913;51.492;10.368;2023-03-26T17:54:57;5.47;;;2.90;;
75316;SDS011;63913;51.492;10.368;2023-03-26T17:57:25;5.65;;;2.35;;
75316;SDS011;63913;51.492;10.368;2023-03-26T18:00:04;2.88;;;1.95;;
75316;SDS011;63913;51.492;10.368;2023-03-26T18:02:37;8.40;;;5.03;;
75316;SDS011;63913;51.492;10.368;2023-03-26T18:05:07;10.85;;;6.40;;
75316;SDS011;63913;51.492;10.368;2023-03-26T18:07:47;6.38;;;3.55;;
75316;SDS011;63913;51.492;10.368;2023-03-26T18:19:15;2.55;;;1.42;;
75316;SDS011;63913;51.492;10.368;2023-03-26T18:21:47;2.65;;;1.88;;
75316;SDS011;63913;51.492;10.368;2023-03-26T18:24:23;2.30;;;1.58;;
75316;SDS011;63913;51.492;10.368;2023-03-26T18:26:57;1.85;;;1.40;;
75316;SDS011;63913;51.492;10.368;2023-03-26T18:31:57;2.30;;;1.90;;
75316;SDS011;63913;51.492;10.368;2023-03-26T18:34:50;1.38;;;1.25;;
75316;SDS011;63913;51.492;10.368;2023-03-26T18:37:22;2.28;;;1.20;;
75316;SDS011;63913;51.492;10.368;2023-03-26T18:42:27;2.28;;;1.70;;
75316;SDS011;63913;51.492;10.368;2023-03-26T18:44:55;2.65;;;1.75;;
75316;SDS011;63913;51.492;10.368;2023-03-26T18:47:21;1.02;;;0.88;;
75316;SDS011;63913;51.492;10.368;2023-03-26T18:49:48;2.90;;;0.70;;
75316;SDS011;63913;51.492;10.368;2023-03-26T18:52:18;1.23;;;0.80;;
75316;SDS011;63913;51.492;10.368;2023-03-26T18:54:48;1.17;;;1.08;;
75316;SDS011;63913;51.492;10.368;2023-03-26T18:57:22;1.48;;;1.33;;
75316;SDS011;63913;51.492;10.368;2023-03-26T18:59:50;2.25;;;1.38;;
75316;SDS011;63913;51.492;10.368;2023-03-26T19:02:16;1.23;;;1.13;;
75316;SDS011;63913;51.492;10.368;2023-03-26T19:04:43;1.60;;;1.15;;
75316;SDS011;63913;51.492;10.368;2023-03-26T19:07:11;1.27;;;1.15;;
75316;SDS011;63913;51.492;10.368;2023-03-26T19:09:39;1.75;;;1.30;;
75316;SDS011;63913;51.492;10.368;2023-03-26T19:12:16;3.25;;;1.75;;
75316;SDS011;63913;51.492;10.368;2023-03-26T19:14:55;2.05;;;1.40;;
75316;SDS011;63913;51.492;10.368;2023-03-26T19:17:20;2.45;;;1.50;;
75316;SDS011;63913;51.492;10.368;2023-03-26T19:19:47;3.30;;;1.95;;
75316;SDS011;63913;51.492;10.368;2023-03-26T19:22:13;5.18;;;2.90;;
75316;SDS011;63913;51.492;10.368;2023-03-26T19:24:40;3.15;;;2.42;;
75316;SDS011;63913;51.492;10.368;2023-03-26T19:27:06;3.17;;;1.40;;
75316;SDS011;63913;51.492;10.368;2023-03-26T19:29:32;1.95;;;1.35;;
75316;SDS011;63913;51.492;10.368;2023-03-26T19:32:00;4.55;;;2.30;;
75316;SDS011;63913;51.492;10.368;2023-03-26T19:37:02;6.75;;;3.20;;
75316;SDS011;63913;51.492;10.368;2023-03-26T19:39:44;3.92;;;2.45;;
75316;SDS011;63913;51.492;10.368;2023-03-26T19:42:12;4.20;;;2.40;;
75316;SDS011;63913;51.492;10.368;2023-03-26T19:44:40;3.38;;;2.60;;
75316;SDS011;63913;51.492;10.368;2023-03-26T19:47:52;1.65;;;1.45;;
75316;SDS011;63913;51.492;10.368;2023-03-26T19:52:43;3.63;;;2.45;;
75316;SDS011;63913;51.492;10.368;2023-03-26T19:55:20;2.90;;;1.70;;
75316;SDS011;63913;51.492;10.368;2023-03-26T19:57:46;2.22;;;1.70;;
75316;SDS011;63913;51.492;10.368;2023-03-26T20:00:12;1.40;;;1.30;;
75316;SDS011;63913;51.492;10.368;2023-03-26T20:02:38;5.25;;;2.38;;
75316;SDS011;63913;51.492;10.368;2023-03-26T20:05:19;3.50;;;1.65;;
75316;SDS011;63913;51.492;10.368;2023-03-26T20:07:47;3.78;;;1.85;;
75316;SDS011;63913;51.492;10.368;2023-03-26T20:10:17;2.72;;;1.80;;
75316;SDS011;63913;51.492;10.368;2023-03-26T20:12:43;4.05;;;1.75;;
75316;SDS011;63913;51.492;10.368;2023-03-26T20:15:15;4.38;;;3.00;;
75316;SDS011;63913;51.492;10.368;2023-03-26T20:17:45;3.60;;;2.28;;
75316;SDS011;63913;51.492;10.368;2023-03-26T20:20:14;4.40;;;2.28;;
75316;SDS011;63913;51.492;10.368;2023-03-26T20:22:39;5.82;;;2.38;;
75316;SDS011;63913;51.492;10.368;2023-03-26T20:25:25;5.00;;;2.55;;
75316;SDS011;63913;51.492;10.368;2023-03-26T20:27:54;6.15;;;2.25;;
75316;SDS011;63913;51.492;10.368;2023-03-26T20:30:20;4.65;;;2.45;;
75316;SDS011;63913;51.492;10.368;2023-03-26T20:32:47;3.97;;;1.83;;
75316;SDS011;63913;51.492;10.368;2023-03-26T20:35:15;4.15;;;1.85;;
75316;SDS011;63913;51.492;10.368;2023-03-26T20:37:44;4.20;;;1.80;;
75316;SDS011;63913;51.492;10.368;2023-03-26T20:40:11;5.00;;;1.85;;
75316;SDS011;63913;51.492;10.368;2023-03-26T20:42:38;5.20;;;1.92;;
75316;SDS011;63913;51.492;10.368;2023-03-26T20:45:14;6.20;;;2.47;;